sensor_id;sensor_type;location;lat;lon;timestamp;temperature;humidity
59572;DHT22;59406;45.602;11.904;2022-12-07T00:03:38;3.10;90.60
59572;DHT22;59406;45.602;11.904;2022-12-07T00:06:05;3.00;91.10
59572;DHT22;59406;45.602;11.904;2022-12-07T00:08:32;3.00;91.00
59572;DHT22;59406;45.602;11.904;2022-12-07T00:11:07;3.10;91.20
59572;DHT22;59406;45.602;11.904;2022-12-07T00:13:34;2.90;91.20
59572;DHT22;59406;45.602;11.904;2022-12-07T00:16:05;2.90;91.10
59572;DHT22;59406;45.602;11.904;2022-12-07T00:18:32;2.90;90.90
59572;DHT22;59406;45.602;11.904;2022-12-07T00:21:06;3.00;90.90
59572;DHT22;59406;45.602;11.904;2022-12-07T00:23:32;3.00;90.70
59572;DHT22;59406;45.602;11.904;2022-12-07T00:26:24;2.90;90.20
59572;DHT22;59406;45.602;11.904;2022-12-07T00:28:56;2.90;90.30
59572;DHT22;59406;45.602;11.904;2022-12-07T00:31:25;2.70;90.60
59572;DHT22;59406;45.602;11.904;2022-12-07T00:33:51;3.00;90.50
59572;DHT22;59406;45.602;11.904;2022-12-07T00:36:19;2.90;91.00
59572;DHT22;59406;45.602;11.904;2022-12-07T00:38:45;2.90;90.90
59572;DHT22;59406;45.602;11.904;2022-12-07T00:41:13;2.90;90.90
59572;DHT22;59406;45.602;11.904;2022-12-07T00:43:40;3.10;90.60
59572;DHT22;59406;45.602;11.904;2022-12-07T00:46:07;2.90;91.00
59572;DHT22;59406;45.602;11.904;2022-12-07T00:48:33;3.10;91.30
59572;DHT22;59406;45.602;11.904;2022-12-07T00:51:00;2.80;91.40
59572;DHT22;59406;45.602;11.904;2022-12-07T00:53:27;3.00;91.10
59572;DHT22;59406;45.602;11.904;2022-12-07T00:55:53;3.00;91.10
59572;DHT22;59406;45.602;11.904;2022-12-07T00:58:21;2.80;91.40
59572;DHT22;59406;45.602;11.904;2022-12-07T01:00:47;2.70;91.70
59572;DHT22;59406;45.602;11.904;2022-12-07T01:03:17;2.70;91.70
59572;DHT22;59406;45.602;11.904;2022-12-07T01:05:53;2.70;91.70
59572;DHT22;59406;45.602;11.904;2022-12-07T01:08:20;2.60;91.70
59572;DHT22;59406;45.602;11.904;2022-12-07T01:11:03;2.70;91.60
59572;DHT22;59406;45.602;11.904;2022-12-07T01:13:30;2.70;91.50
59572;DHT22;59406;45.602;11.904;2022-12-07T01:15:58;2.70;91.40
59572;DHT22;59406;45.602;11.904;2022-12-07T01:18:27;2.30;91.30
59572;DHT22;59406;45.602;11.904;2022-12-07T01:21:11;2.40;91.20
59572;DHT22;59406;45.602;11.904;2022-12-07T01:23:37;2.30;91.10
59572;DHT22;59406;45.602;11.904;2022-12-07T01:26:06;2.30;90.80
59572;DHT22;59406;45.602;11.904;2022-12-07T01:28:32;2.30;90.80
59572;DHT22;59406;45.602;11.904;2022-12-07T01:31:05;2.30;91.00
59572;DHT22;59406;45.602;11.904;2022-12-07T01:33:34;2.60;91.10
59572;DHT22;59406;45.602;11.904;2022-12-07T01:36:21;2.50;91.10
59572;DHT22;59406;45.602;11.904;2022-12-07T01:38:49;2.50;91.00
59572;DHT22;59406;45.602;11.904;2022-12-07T01:41:18;2.40;90.90
59572;DHT22;59406;45.602;11.904;2022-12-07T01:44:11;2.40;91.10
59572;DHT22;59406;45.602;11.904;2022-12-07T01:46:38;2.50;90.90
59572;DHT22;59406;45.602;11.904;2022-12-07T01:49:12;2.30;91.20
59572;DHT22;59406;45.602;11.904;2022-12-07T01:51:41;2.30;91.20
59572;DHT22;59406;45.602;11.904;2022-12-07T01:54:08;2.40;91.30
59572;DHT22;59406;45.602;11.904;2022-12-07T01:56:36;2.50;91.20
59572;DHT22;59406;45.602;11.904;2022-12-07T01:59:02;2.40;91.00
59572;DHT22;59406;45.602;11.904;2022-12-07T02:01:29;2.10;91.00
59572;DHT22;59406;45.602;11.904;2022-12-07T02:03:54;2.40;90.80
59572;DHT22;59406;45.602;11.904;2022-12-07T02:06:23;2.20;90.80
59572;DHT22;59406;45.602;11.904;2022-12-07T02:08:52;2.30;90.80
59572;DHT22;59406;45.602;11.904;2022-12-07T02:11:19;2.40;91.10
59572;DHT22;59406;45.602;11.904;2022-12-07T02:13:46;2.40;91.10
59572;DHT22;59406;45.602;11.904;2022-12-07T02:22:18;2.50;90.80
59572;DHT22;59406;45.602;11.904;2022-12-07T02:25:13;2.70;90.20
59572;DHT22;59406;45.602;11.904;2022-12-07T02:27:51;2.60;89.90
59572;DHT22;59406;45.602;11.904;2022-12-07T02:30:23;2.50;90.30
59572;DHT22;59406;45.602;11.904;2022-12-07T02:32:56;2.40;90.60
59572;DHT22;59406;45.602;11.904;2022-12-07T02:35:33;2.20;90.80
59572;DHT22;59406;45.602;11.904;2022-12-07T02:43:31;2.60;90.30
59572;DHT22;59406;45.602;11.904;2022-12-07T02:46:04;2.50;90.00
59572;DHT22;59406;45.602;11.904;2022-12-07T02:48:33;2.40;90.30
59572;DHT22;59406;45.602;11.904;2022-12-07T02:50:59;2.60;90.30
59572;DHT22;59406;45.602;11.904;2022-12-07T02:53:42;2.60;90.40
59572;DHT22;59406;45.602;11.904;2022-12-07T03:04:05;2.20;91.00
59572;DHT22;59406;45.602;11.904;2022-12-07T03:06:42;2.40;91.10
59572;DHT22;59406;45.602;11.904;2022-12-07T03:09:25;2.30;91.10
59572;DHT22;59406;45.602;11.904;2022-12-07T03:12:01;2.40;91.00
59572;DHT22;59406;45.602;11.904;2022-12-07T03:14:33;2.30;91.40
59572;DHT22;59406;45.602;11.904;2022-12-07T03:17:16;2.20;91.20
59572;DHT22;59406;45.602;11.904;2022-12-07T03:19:45;2.40;91.30
59572;DHT22;59406;45.602;11.904;2022-12-07T03:22:13;2.40;91.10
59572;DHT22;59406;45.602;11.904;2022-12-07T03:24:47;2.40;91.20
59572;DHT22;59406;45.602;11.904;2022-12-07T03:27:21;2.30;91.40
59572;DHT22;59406;45.602;11.904;2022-12-07T03:30:00;2.20;91.30
59572;DHT22;59406;45.602;11.904;2022-12-07T03:32:34;2.60;91.20
59572;DHT22;59406;45.602;11.904;2022-12-07T03:35:07;2.50;91.20
59572;DHT22;59406;45.602;11.904;2022-12-07T03:37:49;2.30;91.10
59572;DHT22;59406;45.602;11.904;2022-12-07T03:42:59;2.20;91.00
59572;DHT22;59406;45.602;11.904;2022-12-07T03:48:37;2.40;91.60
59572;DHT22;59406;45.602;11.904;2022-12-07T03:53:39;2.30;91.50
59572;DHT22;59406;45.602;11.904;2022-12-07T03:56:08;2.60;91.40
59572;DHT22;59406;45.602;11.904;2022-12-07T03:58:35;2.70;91.30
59572;DHT22;59406;45.602;11.904;2022-12-07T04:01:01;2.40;91.10
59572;DHT22;59406;45.602;11.904;2022-12-07T04:03:27;2.70;90.90
59572;DHT22;59406;45.602;11.904;2022-12-07T04:05:53;2.40;90.70
59572;DHT22;59406;45.602;11.904;2022-12-07T04:08:19;2.30;90.90
59572;DHT22;59406;45.602;11.904;2022-12-07T04:10:46;2.60;91.00
59572;DHT22;59406;45.602;11.904;2022-12-07T04:13:12;2.60;91.10
59572;DHT22;59406;45.602;11.904;2022-12-07T04:15:38;2.70;90.80
59572;DHT22;59406;45.602;11.904;2022-12-07T04:18:03;2.50;90.70
59572;DHT22;59406;45.602;11.904;2022-12-07T04:20:29;2.40;90.60
59572;DHT22;59406;45.602;11.904;2022-12-07T04:22:56;2.50;90.50
59572;DHT22;59406;45.602;11.904;2022-12-07T04:25:22;2.50;90.40
59572;DHT22;59406;45.602;11.904;2022-12-07T04:27:48;2.50;90.80
59572;DHT22;59406;45.602;11.904;2022-12-07T04:30:14;2.50;90.30
59572;DHT22;59406;45.602;11.904;2022-12-07T04:32:40;2.40;90.10
59572;DHT22;59406;45.602;11.904;2022-12-07T04:35:07;2.40;89.90
59572;DHT22;59406;45.602;11.904;2022-12-07T04:37:33;2.50;90.20
59572;DHT22;59406;45.602;11.904;2022-12-07T04:39:59;2.60;90.30
59572;DHT22;59406;45.602;11.904;2022-12-07T04:42:24;2.70;90.10
59572;DHT22;59406;45.602;11.904;2022-12-07T04:44:50;2.60;89.80
59572;DHT22;59406;45.602;11.904;2022-12-07T04:47:16;2.50;90.20
59572;DHT22;59406;45.602;11.904;2022-12-07T04:49:42;2.30;90.60
59572;DHT22;59406;45.602;11.904;2022-12-07T04:52:08;2.30;90.20
59572;DHT22;59406;45.602;11.904;2022-12-07T04:54:34;2.40;90.10
59572;DHT22;59406;45.602;11.904;2022-12-07T04:57:00;2.30;90.30
59572;DHT22;59406;45.602;11.904;2022-12-07T04:59:26;2.40;90.00
59572;DHT22;59406;45.602;11.904;2022-12-07T05:01:52;2.20;90.10
59572;DHT22;59406;45.602;11.904;2022-12-07T05:04:18;2.40;90.00
59572;DHT22;59406;45.602;11.904;2022-12-07T05:06:44;2.40;89.80
59572;DHT22;59406;45.602;11.904;2022-12-07T05:09:12;2.30;90.00
59572;DHT22;59406;45.602;11.904;2022-12-07T05:11:38;2.40;89.80
59572;DHT22;59406;45.602;11.904;2022-12-07T05:14:15;2.40;89.60
59572;DHT22;59406;45.602;11.904;2022-12-07T05:16:43;2.40;89.60
59572;DHT22;59406;45.602;11.904;2022-12-07T05:19:09;2.30;90.00
59572;DHT22;59406;45.602;11.904;2022-12-07T05:21:36;2.20;90.50
59572;DHT22;59406;45.602;11.904;2022-12-07T05:24:03;2.20;90.50
59572;DHT22;59406;45.602;11.904;2022-12-07T05:26:29;2.00;90.30
59572;DHT22;59406;45.602;11.904;2022-12-07T05:28:56;2.30;90.30
59572;DHT22;59406;45.602;11.904;2022-12-07T05:31:23;2.20;90.30
59572;DHT22;59406;45.602;11.904;2022-12-07T05:33:49;2.50;90.30
59572;DHT22;59406;45.602;11.904;2022-12-07T05:36:15;2.20;90.10
59572;DHT22;59406;45.602;11.904;2022-12-07T05:38:41;2.30;90.40
59572;DHT22;59406;45.602;11.904;2022-12-07T05:41:08;2.20;90.60
59572;DHT22;59406;45.602;11.904;2022-12-07T05:43:55;2.30;90.50
59572;DHT22;59406;45.602;11.904;2022-12-07T05:46:21;2.30;90.40
59572;DHT22;59406;45.602;11.904;2022-12-07T05:48:47;2.30;90.30
59572;DHT22;59406;45.602;11.904;2022-12-07T05:51:13;2.50;90.20
59572;DHT22;59406;45.602;11.904;2022-12-07T05:53:39;2.20;90.30
59572;DHT22;59406;45.602;11.904;2022-12-07T05:56:05;2.20;90.10
59572;DHT22;59406;45.602;11.904;2022-12-07T05:58:31;2.20;90.40
59572;DHT22;59406;45.602;11.904;2022-12-07T06:01:15;2.20;90.60
59572;DHT22;59406;45.602;11.904;2022-12-07T06:03:42;2.40;90.50
59572;DHT22;59406;45.602;11.904;2022-12-07T06:06:07;2.20;90.50
59572;DHT22;59406;45.602;11.904;2022-12-07T06:08:33;2.30;90.30
59572;DHT22;59406;45.602;11.904;2022-12-07T06:10:59;2.40;90.10
59572;DHT22;59406;45.602;11.904;2022-12-07T06:13:45;2.10;90.00
59572;DHT22;59406;45.602;11.904;2022-12-07T06:16:11;2.20;90.00
59572;DHT22;59406;45.602;11.904;2022-12-07T06:18:37;2.30;90.30
59572;DHT22;59406;45.602;11.904;2022-12-07T06:21:03;2.30;90.50
59572;DHT22;59406;45.602;11.904;2022-12-07T06:23:29;2.10;90.70
59572;DHT22;59406;45.602;11.904;2022-12-07T06:25:55;2.30;90.60
59572;DHT22;59406;45.602;11.904;2022-12-07T06:28:21;2.30;90.40
59572;DHT22;59406;45.602;11.904;2022-12-07T06:30:47;2.30;90.30
59572;DHT22;59406;45.602;11.904;2022-12-07T06:33:13;2.40;90.20
59572;DHT22;59406;45.602;11.904;2022-12-07T06:35:38;2.20;90.20
59572;DHT22;59406;45.602;11.904;2022-12-07T06:38:04;2.40;90.20
59572;DHT22;59406;45.602;11.904;2022-12-07T06:40:30;2.40;90.00
59572;DHT22;59406;45.602;11.904;2022-12-07T06:42:56;2.30;89.90
59572;DHT22;59406;45.602;11.904;2022-12-07T06:45:22;2.30;90.00
59572;DHT22;59406;45.602;11.904;2022-12-07T06:47:48;2.30;90.20
59572;DHT22;59406;45.602;11.904;2022-12-07T06:50:14;2.40;90.20
59572;DHT22;59406;45.602;11.904;2022-12-07T06:52:40;2.50;90.10
59572;DHT22;59406;45.602;11.904;2022-12-07T06:55:06;2.40;90.10
59572;DHT22;59406;45.602;11.904;2022-12-07T06:57:32;2.50;90.00
59572;DHT22;59406;45.602;11.904;2022-12-07T06:59:58;2.30;89.60
59572;DHT22;59406;45.602;11.904;2022-12-07T07:02:24;2.40;89.30
59572;DHT22;59406;45.602;11.904;2022-12-07T07:04:50;2.50;89.60
59572;DHT22;59406;45.602;11.904;2022-12-07T07:07:16;2.50;89.70
59572;DHT22;59406;45.602;11.904;2022-12-07T07:09:42;2.30;89.90
59572;DHT22;59406;45.602;11.904;2022-12-07T07:12:08;2.50;90.20
59572;DHT22;59406;45.602;11.904;2022-12-07T07:14:34;2.60;90.10
59572;DHT22;59406;45.602;11.904;2022-12-07T07:17:00;2.70;89.60
59572;DHT22;59406;45.602;11.904;2022-12-07T07:19:26;2.50;89.40
59572;DHT22;59406;45.602;11.904;2022-12-07T07:21:52;2.40;89.40
59572;DHT22;59406;45.602;11.904;2022-12-07T07:24:18;2.50;89.70
59572;DHT22;59406;45.602;11.904;2022-12-07T07:26:44;2.60;89.90
59572;DHT22;59406;45.602;11.904;2022-12-07T07:29:09;2.60;90.00
59572;DHT22;59406;45.602;11.904;2022-12-07T07:31:35;2.60;90.20
59572;DHT22;59406;45.602;11.904;2022-12-07T07:34:03;2.70;90.20
59572;DHT22;59406;45.602;11.904;2022-12-07T07:36:28;2.80;90.30
59572;DHT22;59406;45.602;11.904;2022-12-07T07:38:54;2.70;89.80
59572;DHT22;59406;45.602;11.904;2022-12-07T07:41:20;2.90;90.00
59572;DHT22;59406;45.602;11.904;2022-12-07T07:43:46;2.90;90.00
59572;DHT22;59406;45.602;11.904;2022-12-07T07:46:12;3.20;90.10
59572;DHT22;59406;45.602;11.904;2022-12-07T07:48:38;3.10;90.00
59572;DHT22;59406;45.602;11.904;2022-12-07T07:51:08;3.00;90.10
59572;DHT22;59406;45.602;11.904;2022-12-07T07:53:34;3.20;90.10
59572;DHT22;59406;45.602;11.904;2022-12-07T07:56:00;3.30;90.10
59572;DHT22;59406;45.602;11.904;2022-12-07T07:58:27;3.60;90.00
59572;DHT22;59406;45.602;11.904;2022-12-07T08:00:53;3.50;89.90
59572;DHT22;59406;45.602;11.904;2022-12-07T08:03:20;3.80;90.10
59572;DHT22;59406;45.602;11.904;2022-12-07T08:05:46;3.70;90.00
59572;DHT22;59406;45.602;11.904;2022-12-07T08:08:12;4.20;89.90
59572;DHT22;59406;45.602;11.904;2022-12-07T08:10:38;4.30;89.60
59572;DHT22;59406;45.602;11.904;2022-12-07T08:13:04;4.20;89.70
59572;DHT22;59406;45.602;11.904;2022-12-07T08:15:41;4.30;89.80
59572;DHT22;59406;45.602;11.904;2022-12-07T08:18:08;4.50;89.50
59572;DHT22;59406;45.602;11.904;2022-12-07T08:20:35;4.70;89.60
59572;DHT22;59406;45.602;11.904;2022-12-07T08:23:02;4.90;89.20
59572;DHT22;59406;45.602;11.904;2022-12-07T08:25:28;5.20;89.20
59572;DHT22;59406;45.602;11.904;2022-12-07T08:27:54;5.70;89.00
59572;DHT22;59406;45.602;11.904;2022-12-07T08:30:21;5.80;88.40
59572;DHT22;59406;45.602;11.904;2022-12-07T08:32:47;6.30;88.20
59572;DHT22;59406;45.602;11.904;2022-12-07T08:35:14;6.80;87.90
59572;DHT22;59406;45.602;11.904;2022-12-07T08:37:41;7.50;87.20
59572;DHT22;59406;45.602;11.904;2022-12-07T08:40:08;8.10;86.20
59572;DHT22;59406;45.602;11.904;2022-12-07T08:42:35;8.60;86.00
59572;DHT22;59406;45.602;11.904;2022-12-07T08:45:08;9.40;85.60
59572;DHT22;59406;45.602;11.904;2022-12-07T08:47:37;9.90;84.10
59572;DHT22;59406;45.602;11.904;2022-12-07T08:50:06;10.50;83.70
59572;DHT22;59406;45.602;11.904;2022-12-07T08:52:34;10.70;83.20
59572;DHT22;59406;45.602;11.904;2022-12-07T08:55:01;10.50;82.90
59572;DHT22;59406;45.602;11.904;2022-12-07T08:57:28;10.30;83.10
59572;DHT22;59406;45.602;11.904;2022-12-07T08:59:55;10.10;83.50
59572;DHT22;59406;45.602;11.904;2022-12-07T09:02:21;10.10;83.00
59572;DHT22;59406;45.602;11.904;2022-12-07T09:04:47;10.10;83.20
59572;DHT22;59406;45.602;11.904;2022-12-07T09:07:13;10.10;83.50
59572;DHT22;59406;45.602;11.904;2022-12-07T09:09:39;10.30;83.60
59572;DHT22;59406;45.602;11.904;2022-12-07T09:12:05;11.00;84.10
59572;DHT22;59406;45.602;11.904;2022-12-07T09:14:31;11.90;82.80
59572;DHT22;59406;45.602;11.904;2022-12-07T09:17:08;12.30;81.80
59572;DHT22;59406;45.602;11.904;2022-12-07T09:19:34;11.90;81.80
59572;DHT22;59406;45.602;11.904;2022-12-07T09:22:00;11.80;82.30
59572;DHT22;59406;45.602;11.904;2022-12-07T09:24:26;12.20;82.20
59572;DHT22;59406;45.602;11.904;2022-12-07T09:26:53;13.00;80.80
59572;DHT22;59406;45.602;11.904;2022-12-07T09:29:19;13.60;79.50
59572;DHT22;59406;45.602;11.904;2022-12-07T09:31:45;14.10;79.60
59572;DHT22;59406;45.602;11.904;2022-12-07T09:34:11;13.80;78.60
59572;DHT22;59406;45.602;11.904;2022-12-07T09:36:37;14.10;78.80
59572;DHT22;59406;45.602;11.904;2022-12-07T09:39:03;14.00;78.70
59572;DHT22;59406;45.602;11.904;2022-12-07T09:41:30;13.80;79.20
59572;DHT22;59406;45.602;11.904;2022-12-07T09:44:05;13.70;80.00
59572;DHT22;59406;45.602;11.904;2022-12-07T09:46:36;14.10;81.00
59572;DHT22;59406;45.602;11.904;2022-12-07T09:49:03;14.50;77.50
59572;DHT22;59406;45.602;11.904;2022-12-07T09:51:31;14.70;79.90
59572;DHT22;59406;45.602;11.904;2022-12-07T09:53:58;14.80;78.40
59572;DHT22;59406;45.602;11.904;2022-12-07T09:56:24;14.50;79.30
59572;DHT22;59406;45.602;11.904;2022-12-07T09:58:55;14.60;81.10
59572;DHT22;59406;45.602;11.904;2022-12-07T10:01:23;15.30;79.70
59572;DHT22;59406;45.602;11.904;2022-12-07T10:06:17;14.80;80.00
59572;DHT22;59406;45.602;11.904;2022-12-07T10:08:43;15.10;79.40
59572;DHT22;59406;45.602;11.904;2022-12-07T10:11:11;15.20;79.70
59572;DHT22;59406;45.602;11.904;2022-12-07T10:16:03;15.10;79.30
59572;DHT22;59406;45.602;11.904;2022-12-07T10:18:40;15.10;80.40
59572;DHT22;59406;45.602;11.904;2022-12-07T10:21:18;15.00;79.50
59572;DHT22;59406;45.602;11.904;2022-12-07T10:24:12;14.90;80.00
59572;DHT22;59406;45.602;11.904;2022-12-07T10:26:51;14.90;77.50
59572;DHT22;59406;45.602;11.904;2022-12-07T10:29:36;14.80;78.60
59572;DHT22;59406;45.602;11.904;2022-12-07T10:32:26;15.00;77.70
59572;DHT22;59406;45.602;11.904;2022-12-07T10:35:23;15.10;78.90
59572;DHT22;59406;45.602;11.904;2022-12-07T10:37:50;15.30;77.40
59572;DHT22;59406;45.602;11.904;2022-12-07T10:40:35;15.40;79.60
59572;DHT22;59406;45.602;11.904;2022-12-07T10:43:05;15.50;76.20
59572;DHT22;59406;45.602;11.904;2022-12-07T10:45:32;15.90;77.60
59572;DHT22;59406;45.602;11.904;2022-12-07T10:48:08;16.20;75.90
59572;DHT22;59406;45.602;11.904;2022-12-07T11:01:56;16.90;73.40
59572;DHT22;59406;45.602;11.904;2022-12-07T11:04:31;16.80;72.60
59572;DHT22;59406;45.602;11.904;2022-12-07T11:07:18;17.20;74.10
59572;DHT22;59406;45.602;11.904;2022-12-07T11:10:02;17.00;73.30
59572;DHT22;59406;45.602;11.904;2022-12-07T11:18:17;17.90;71.80
59572;DHT22;59406;45.602;11.904;2022-12-07T11:20:54;18.20;71.40
59572;DHT22;59406;45.602;11.904;2022-12-07T11:31:13;19.20;70.50
59572;DHT22;59406;45.602;11.904;2022-12-07T11:33:47;20.20;68.80
59572;DHT22;59406;45.602;11.904;2022-12-07T11:38:59;20.40;68.90
59572;DHT22;59406;45.602;11.904;2022-12-07T11:41:33;20.60;68.10
59572;DHT22;59406;45.602;11.904;2022-12-07T11:49:23;22.80;64.40
59572;DHT22;59406;45.602;11.904;2022-12-07T11:51:56;23.20;65.10
59572;DHT22;59406;45.602;11.904;2022-12-07T11:54:32;23.70;61.50
59572;DHT22;59406;45.602;11.904;2022-12-07T11:57:04;23.10;60.70
59572;DHT22;59406;45.602;11.904;2022-12-07T11:59:39;23.30;58.60
59572;DHT22;59406;45.602;11.904;2022-12-07T12:02:26;22.80;60.90
59572;DHT22;59406;45.602;11.904;2022-12-07T12:07:26;21.90;60.40
59572;DHT22;59406;45.602;11.904;2022-12-07T12:10:04;22.40;60.90
59572;DHT22;59406;45.602;11.904;2022-12-07T12:18:07;24.00;52.90
59572;DHT22;59406;45.602;11.904;2022-12-07T12:23:51;25.00;53.10
59572;DHT22;59406;45.602;11.904;2022-12-07T12:26:23;24.80;52.70
59572;DHT22;59406;45.602;11.904;2022-12-07T12:29:19;24.90;54.50
59572;DHT22;59406;45.602;11.904;2022-12-07T12:32:04;24.30;47.40
59572;DHT22;59406;45.602;11.904;2022-12-07T12:34:37;23.40;57.80
59572;DHT22;59406;45.602;11.904;2022-12-07T12:42:58;22.00;60.10
59572;DHT22;59406;45.602;11.904;2022-12-07T12:45:42;21.50;57.40
59572;DHT22;59406;45.602;11.904;2022-12-07T12:48:29;21.30;53.40
59572;DHT22;59406;45.602;11.904;2022-12-07T12:51:36;21.10;57.00
59572;DHT22;59406;45.602;11.904;2022-12-07T13:02:54;22.00;58.30
59572;DHT22;59406;45.602;11.904;2022-12-07T13:05:25;22.60;58.60
59572;DHT22;59406;45.602;11.904;2022-12-07T13:08:18;23.70;55.00
59572;DHT22;59406;45.602;11.904;2022-12-07T13:10:47;24.00;50.80
59572;DHT22;59406;45.602;11.904;2022-12-07T13:15:52;24.70;51.40
59572;DHT22;59406;45.602;11.904;2022-12-07T13:29:14;23.20;52.50
59572;DHT22;59406;45.602;11.904;2022-12-07T13:31:57;24.10;45.80
59572;DHT22;59406;45.602;11.904;2022-12-07T13:37:08;24.90;48.30
59572;DHT22;59406;45.602;11.904;2022-12-07T13:39:48;25.20;49.70
59572;DHT22;59406;45.602;11.904;2022-12-07T13:42:34;25.30;46.80
59572;DHT22;59406;45.602;11.904;2022-12-07T13:47:52;26.20;44.80
59572;DHT22;59406;45.602;11.904;2022-12-07T13:50:30;26.50;47.90
59572;DHT22;59406;45.602;11.904;2022-12-07T13:52:59;27.10;44.00
59572;DHT22;59406;45.602;11.904;2022-12-07T13:55:26;27.00;45.00
59572;DHT22;59406;45.602;11.904;2022-12-07T13:57:54;26.70;46.90
59572;DHT22;59406;45.602;11.904;2022-12-07T14:00:25;27.10;45.70
59572;DHT22;59406;45.602;11.904;2022-12-07T14:03:03;26.30;46.10
59572;DHT22;59406;45.602;11.904;2022-12-07T14:05:33;26.20;45.10
59572;DHT22;59406;45.602;11.904;2022-12-07T14:10:33;24.50;49.80
59572;DHT22;59406;45.602;11.904;2022-12-07T14:13:02;25.10;48.30
59572;DHT22;59406;45.602;11.904;2022-12-07T14:17:57;25.20;47.10
59572;DHT22;59406;45.602;11.904;2022-12-07T14:20:40;25.20;48.20
59572;DHT22;59406;45.602;11.904;2022-12-07T14:23:26;24.90;47.70
59572;DHT22;59406;45.602;11.904;2022-12-07T14:25:53;25.40;44.90
59572;DHT22;59406;45.602;11.904;2022-12-07T14:28:31;25.10;46.80
59572;DHT22;59406;45.602;11.904;2022-12-07T14:30:58;24.60;46.80
59572;DHT22;59406;45.602;11.904;2022-12-07T14:33:24;24.70;48.20
59572;DHT22;59406;45.602;11.904;2022-12-07T14:35:51;24.80;48.40
59572;DHT22;59406;45.602;11.904;2022-12-07T14:38:21;24.60;48.10
59572;DHT22;59406;45.602;11.904;2022-12-07T14:40:48;24.00;48.90
59572;DHT22;59406;45.602;11.904;2022-12-07T14:43:16;23.90;49.40
59572;DHT22;59406;45.602;11.904;2022-12-07T14:45:42;24.10;49.30
59572;DHT22;59406;45.602;11.904;2022-12-07T14:48:13;24.10;49.00
59572;DHT22;59406;45.602;11.904;2022-12-07T14:50:45;23.90;48.40
59572;DHT22;59406;45.602;11.904;2022-12-07T14:53:17;23.50;50.80
59572;DHT22;59406;45.602;11.904;2022-12-07T14:55:44;23.10;52.20
59572;DHT22;59406;45.602;11.904;2022-12-07T14:58:17;22.90;52.70
59572;DHT22;59406;45.602;11.904;2022-12-07T15:00:44;22.60;53.20
59572;DHT22;59406;45.602;11.904;2022-12-07T15:03:10;22.10;54.60
59572;DHT22;59406;45.602;11.904;2022-12-07T15:05:39;21.00;56.00
59572;DHT22;59406;45.602;11.904;2022-12-07T15:08:05;19.90;60.00
59572;DHT22;59406;45.602;11.904;2022-12-07T15:10:33;18.80;64.60
59572;DHT22;59406;45.602;11.904;2022-12-07T15:13:01;17.90;66.90
59572;DHT22;59406;45.602;11.904;2022-12-07T15:15:46;17.10;67.40
59572;DHT22;59406;45.602;11.904;2022-12-07T15:18:12;16.40;67.90
59572;DHT22;59406;45.602;11.904;2022-12-07T15:20:38;15.80;68.60
59572;DHT22;59406;45.602;11.904;2022-12-07T15:23:04;15.40;70.20
59572;DHT22;59406;45.602;11.904;2022-12-07T15:25:30;14.80;70.80
59572;DHT22;59406;45.602;11.904;2022-12-07T15:27:56;14.60;71.20
59572;DHT22;59406;45.602;11.904;2022-12-07T15:30:22;14.20;71.90
59572;DHT22;59406;45.602;11.904;2022-12-07T15:32:52;14.00;72.00
59572;DHT22;59406;45.602;11.904;2022-12-07T15:35:18;13.70;72.40
59572;DHT22;59406;45.602;11.904;2022-12-07T15:37:45;13.30;72.80
59572;DHT22;59406;45.602;11.904;2022-12-07T15:40:12;12.90;73.40
59572;DHT22;59406;45.602;11.904;2022-12-07T15:42:38;12.60;75.00
59572;DHT22;59406;45.602;11.904;2022-12-07T15:45:06;12.20;75.40
59572;DHT22;59406;45.602;11.904;2022-12-07T15:47:42;11.80;75.90
59572;DHT22;59406;45.602;11.904;2022-12-07T15:50:11;11.70;76.40
59572;DHT22;59406;45.602;11.904;2022-12-07T15:52:39;11.40;76.40
59572;DHT22;59406;45.602;11.904;2022-12-07T15:55:05;11.20;76.60
59572;DHT22;59406;45.602;11.904;2022-12-07T15:57:33;11.10;76.90
59572;DHT22;59406;45.602;11.904;2022-12-07T15:59:59;10.90;77.00
59572;DHT22;59406;45.602;11.904;2022-12-07T16:02:25;10.90;77.40
59572;DHT22;59406;45.602;11.904;2022-12-07T16:04:52;10.80;77.50
59572;DHT22;59406;45.602;11.904;2022-12-07T16:07:18;10.70;77.70
59572;DHT22;59406;45.602;11.904;2022-12-07T16:09:45;10.70;77.70
59572;DHT22;59406;45.602;11.904;2022-12-07T16:12:12;10.60;77.70
59572;DHT22;59406;45.602;11.904;2022-12-07T16:14:39;10.40;78.20
59572;DHT22;59406;45.602;11.904;2022-12-07T16:17:07;10.30;78.50
59572;DHT22;59406;45.602;11.904;2022-12-07T16:19:35;10.10;78.70
59572;DHT22;59406;45.602;11.904;2022-12-07T16:22:02;9.90;79.40
59572;DHT22;59406;45.602;11.904;2022-12-07T16:24:29;9.70;79.70
59572;DHT22;59406;45.602;11.904;2022-12-07T16:26:55;9.60;79.90
59572;DHT22;59406;45.602;11.904;2022-12-07T16:29:22;9.40;80.20
59572;DHT22;59406;45.602;11.904;2022-12-07T16:31:49;9.40;80.50
59572;DHT22;59406;45.602;11.904;2022-12-07T16:34:15;9.30;80.80
59572;DHT22;59406;45.602;11.904;2022-12-07T16:36:41;9.30;80.50
59572;DHT22;59406;45.602;11.904;2022-12-07T16:39:07;9.20;79.90
59572;DHT22;59406;45.602;11.904;2022-12-07T16:41:33;9.40;80.20
59572;DHT22;59406;45.602;11.904;2022-12-07T16:44:04;9.30;80.20
59572;DHT22;59406;45.602;11.904;2022-12-07T16:46:34;9.10;80.70
59572;DHT22;59406;45.602;11.904;2022-12-07T16:49:01;9.00;81.00
59572;DHT22;59406;45.602;11.904;2022-12-07T16:51:27;8.80;80.90
59572;DHT22;59406;45.602;11.904;2022-12-07T16:53:53;8.90;80.80
59572;DHT22;59406;45.602;11.904;2022-12-07T16:56:20;8.70;80.90
59572;DHT22;59406;45.602;11.904;2022-12-07T16:58:46;8.60;80.90
59572;DHT22;59406;45.602;11.904;2022-12-07T17:01:20;8.60;81.70
59572;DHT22;59406;45.602;11.904;2022-12-07T17:03:48;8.30;82.20
59572;DHT22;59406;45.602;11.904;2022-12-07T17:06:18;8.20;82.10
59572;DHT22;59406;45.602;11.904;2022-12-07T17:08:44;8.20;82.30
59572;DHT22;59406;45.602;11.904;2022-12-07T17:13:46;8.10;82.60
59572;DHT22;59406;45.602;11.904;2022-12-07T17:16:31;7.90;83.10
59572;DHT22;59406;45.602;11.904;2022-12-07T17:18:58;8.00;83.20
59572;DHT22;59406;45.602;11.904;2022-12-07T17:21:24;7.80;83.50
59572;DHT22;59406;45.602;11.904;2022-12-07T17:23:51;7.80;83.10
59572;DHT22;59406;45.602;11.904;2022-12-07T17:26:20;7.90;83.40
59572;DHT22;59406;45.602;11.904;2022-12-07T17:28:46;7.70;83.30
59572;DHT22;59406;45.602;11.904;2022-12-07T17:31:14;7.80;83.70
59572;DHT22;59406;45.602;11.904;2022-12-07T17:33:40;7.70;83.60
59572;DHT22;59406;45.602;11.904;2022-12-07T17:38:36;7.80;83.40
59572;DHT22;59406;45.602;11.904;2022-12-07T17:41:15;7.70;83.60
59572;DHT22;59406;45.602;11.904;2022-12-07T17:44:02;7.70;84.10